Aeroporto :
LOGIN :

Iscrizione | Disclaimer

   EN    FR    IT 

 










Sommario :    VFR   VFR Marginale   IFR   IFR Intensivo   IFR Molto Intensivo
Visibilità : 
Base nubi : 
>= 8 km
>= 3000ft
5 / 8 km
1000 / 3000 ft
1500m / 5 km
500 / 1000 ft
800 / 1500m
200 / 500 ft
< 800m
< 200 ft
Simboli :   Temporali  Nebbia  Neve Forte  Precipitazioni Forti  Vento > 20 kt
SIGMETs :   Varie  Temporali  Ghiacco  Turbolenza  Onda orograficha  Ceneri Vulcaniche






- Altitudine del aeroporto : 517 ft
- Codice IATA : GML


UKKM - Antonov

ULTIMO METAR :
  • 241800Z AUTO 30005G10MPS 9999 // 02/01 Q1006

METARs OBSOLETI :
  • 241730Z AUTO 31007MPS 9999 // ///016/// 02/01 Q1005
  • 241700Z AUTO 30007MPS 9999 // 03/01 Q1005
  • 241630Z AUTO 30008G13MPS 9000 -RA FEW013/// 03/02 Q1004
  • 241600Z AUTO 30007MPS 9999 // ///043/// 03/02 Q1004
  • 241530Z AUTO 30006G11MPS 9999 // NSC 04/01 Q1003

TAF TAF UKKM
Valido dal 24 a 12 ore il 25 a 12 ore UTC


241110Z 2412/2512 30008G13MPS 9999 BKN007 BKN015 TX03/2414Z TNM02/2505Z
TEMPO 2412/2421 32015G20MPS 2100 -SHSNRA BKN004 SCT012CB
BECMG 2421/2423 25005MPS
TEMPO 2502/2508 1000 BR BKN003
BECMG 2508/2509 21006G11MPS



MetMap, La meteo Aeronautica in un colpo d'occhio ! - Copyright ORBIFLY Dicembre 2007 - Disclaimer

ORBIFLY MET'MAP TEAM :

Programmazione e sviluppo : Alexandra Zaïnal
Concezione : Baudouin d'Aumeries
Aiuto per la programmazione : Marc-Olivier Méhu
Supporto tecnico e logistico : Manuel Goepfert
Aiuto per la traduzione : Arnaldo La Scala

Contatto : metmap@orbifly.com




FONTI E CREDITI :

   NOAA